Time;durP1;ratioP1;P1;durP2;ratioP2;P2;SDS_P1;SDS_P2;PMS_P1;PMS_P2;Temp;Humidity;BMP_temperature;BMP_pressure;BME280_temperature;BME280_humidity;BME280_pressure;Samples;Min_cycle;Max_cycle;Signal;HPM_P1;HPM_P2
2022/04/11 00:00:10;;;;;;;15.50;12.70;;;;;;;4.82;64.42;101770.47;5030625;28;20089;-93
2022/04/11 00:02:36;;;;;;;14.43;11.63;;;;;;;4.78;64.76;101760.84;5031580;28;20017;-92
2022/04/11 00:05:02;;;;;;;16.98;11.63;;;;;;;4.79;64.48;101762.59;5027041;28;20579;-92
2022/04/11 00:07:27;;;;;;;14.25;11.70;;;;;;;4.68;63.58;101748.66;5031321;28;20112;-91
2022/04/11 00:09:52;;;;;;;12.60;11.30;;;;;;;4.76;63.86;101759.97;5033322;28;20106;-92
2022/04/11 00:12:18;;;;;;;13.23;11.38;;;;;;;4.81;64.12;101757.28;5025471;28;20482;-92
2022/04/11 00:14:43;;;;;;;12.30;11.05;;;;;;;4.69;63.12;101743.38;5026896;28;20040;-92
2022/04/11 00:17:08;;;;;;;14.27;11.30;;;;;;;4.58;63.63;101715.38;5025737;28;20320;-92
2022/04/11 00:19:33;;;;;;;13.38;11.60;;;;;;;4.76;63.38;101741.50;5031850;28;20032;-93
2022/04/11 00:22:07;;;;;;;13.98;11.57;;;;;;;4.73;62.91;101745.09;5029469;28;20048;-93
2022/04/11 00:24:32;;;;;;;;;;;;;;;4.85;62.06;101741.41;5023779;28;20048;-92
2022/04/11 00:26:58;;;;;;;13.02;11.68;;;;;;;4.79;63.08;101746.75;5031061;28;19924;-93
2022/04/11 00:29:23;;;;;;;15.45;11.70;;;;;;;4.73;63.87;101728.38;5031849;28;20072;-94
2022/04/11 00:31:48;;;;;;;13.70;11.27;;;;;;;4.79;63.75;101748.53;5027910;28;20045;-94
2022/04/11 00:34:14;;;;;;;13.73;11.40;;;;;;;4.78;63.72;101739.75;5034706;28;20093;-94
2022/04/11 00:36:39;;;;;;;12.82;11.15;;;;;;;4.75;63.72;101738.00;5008900;28;20026;-94
2022/04/11 00:39:04;;;;;;;13.63;11.75;;;;;;;4.64;63.08;101715.28;5032752;28;20052;-92
2022/04/11 00:41:30;;;;;;;13.45;11.68;;;;;;;4.77;64.85;101737.13;5032149;28;20073;-93
2022/04/11 00:43:55;;;;;;;12.52;11.00;;;;;;;4.74;63.26;101733.63;5031928;28;20451;-92
2022/04/11 00:46:20;;;;;;;17.40;12.20;;;;;;;4.75;62.29;101731.88;5028480;28;20532;-91
2022/04/11 00:48:46;;;;;;;14.13;11.18;;;;;;;4.67;62.47;101710.00;5036312;28;20025;-92
2022/04/11 00:51:19;;;;;;;14.65;11.75;;;;;;;4.61;62.24;101710.06;5034518;28;20038;-91
2022/04/11 00:53:46;;;;;;;16.97;12.57;;;;;;;4.58;61.75;101692.53;5032731;28;20045;-92
2022/04/11 00:56:15;;;;;;;12.73;11.35;;;;;;;4.55;62.44;101683.78;5032263;28;20069;-92
2022/04/11 00:58:41;;;;;;;13.02;11.65;;;;;;;4.66;61.92;101708.25;5029744;28;20137;-92
2022/04/11 01:01:08;;;;;;;14.05;11.70;;;;;;;4.66;62.45;101702.97;5023385;28;20021;-93
2022/04/11 01:03:36;;;;;;;12.95;11.43;;;;;;;4.64;62.44;101708.28;5031689;28;20103;-92
2022/04/11 01:06:03;;;;;;;14.20;11.60;;;;;;;4.38;62.28;101658.50;5034170;28;20277;-92
2022/04/11 01:08:28;;;;;;;13.80;11.82;;;;;;;4.57;62.42;101695.19;5037941;28;20112;-93
2022/04/11 01:10:54;;;;;;;14.45;11.68;;;;;;;4.39;62.17;101662.91;5033550;28;20084;-93
2022/04/11 01:13:20;;;;;;;13.38;11.10;;;;;;;4.49;62.28;101685.59;5032227;28;20083;-93
2022/04/11 01:15:55;;;;;;;15.02;11.88;;;;;;;4.64;62.50;101704.75;5032094;28;20030;-93
2022/04/11 01:18:21;;;;;;;14.07;11.32;;;;;;;4.46;62.43;101676.84;5031079;28;20232;-93
2022/04/11 01:20:46;;;;;;;12.45;11.00;;;;;;;4.42;62.81;101670.75;5025866;28;20506;-92
2022/04/11 01:23:11;;;;;;;13.40;11.88;;;;;;;4.34;62.79;101654.16;5031834;28;20063;-92
2022/04/11 01:25:39;;;;;;;15.70;11.98;;;;;;;4.40;62.83;101664.63;5018754;28;20371;-92
2022/04/11 01:28:04;;;;;;;14.98;11.95;;;;;;;4.41;62.81;101671.63;5032696;28;20314;-93
2022/04/11 01:30:30;;;;;;;16.50;12.48;;;;;;;4.45;62.70;101681.25;5027327;28;20021;-93
2022/04/11 01:32:56;;;;;;;15.40;12.38;;;;;;;4.43;62.82;101677.78;5033279;28;20468;-90
2022/04/11 01:35:24;;;;;;;13.27;11.98;;;;;;;4.41;63.61;101676.91;5033094;28;20030;-92
2022/04/11 01:37:49;;;;;;;15.07;12.55;;;;;;;4.44;63.62;101687.44;5043923;28;20030;-92
2022/04/11 01:40:15;;;;;;;14.40;12.45;;;;;;;4.38;64.19;101674.31;5030236;28;20084;-93
2022/04/11 01:42:42;;;;;;;14.38;12.07;;;;;;;4.33;64.11;101668.22;5030201;28;20034;-92
2022/04/11 01:45:10;;;;;;;14.20;12.57;;;;;;;4.44;63.68;101689.19;5030979;28;20009;-92
2022/04/11 01:47:37;;;;;;;15.23;13.00;;;;;;;4.38;64.96;101681.34;5024349;28;20056;-92
2022/04/11 01:50:02;;;;;;;15.77;12.60;;;;;;;4.47;64.69;101702.31;5026220;28;20579;-93
2022/04/11 01:52:27;;;;;;;16.48;12.43;;;;;;;4.45;63.91;101693.56;5028314;28;20088;-93
2022/04/11 01:54:52;;;;;;;15.52;12.40;;;;;;;4.40;64.77;101688.34;5032574;28;20037;-92
2022/04/11 01:57:18;;;;;;;14.35;11.80;;;;;;;4.35;64.23;101687.53;5034119;28;20410;-93
2022/04/11 01:59:43;;;;;;;14.30;12.63;;;;;;;4.38;64.96;101700.66;5036211;28;20044;-91
2022/04/11 02:02:08;;;;;;;14.60;12.73;;;;;;;4.31;65.02;101685.84;5032435;28;20033;-92
2022/04/11 02:04:33;;;;;;;14.98;13.38;;;;;;;4.33;65.47;101685.81;5026901;28;20073;-93
2022/04/11 02:06:59;;;;;;;15.93;12.73;;;;;;;4.29;66.13;101684.97;5030064;28;20033;-92
2022/04/11 02:09:25;;;;;;;15.10;13.15;;;;;;;4.33;65.41;101694.56;5033259;28;20067;-92
2022/04/11 02:11:50;;;;;;;15.43;12.32;;;;;;;4.24;65.74;101686.78;5029975;28;20061;-92
2022/04/11 02:14:15;;;;;;;18.02;13.02;;;;;;;4.16;66.02;101684.22;5031735;28;20029;-92
2022/04/11 02:16:43;;;;;;;14.25;12.63;;;;;;;4.10;65.34;101679.03;5026781;28;20029;-92
2022/04/11 02:19:08;;;;;;;17.63;13.48;;;;;;;4.11;65.97;101683.41;5027811;28;20111;-91
2022/04/11 02:21:34;;;;;;;16.98;13.18;;;;;;;4.03;65.34;101679.97;5023209;28;20031;-91
2022/04/11 02:23:59;;;;;;;17.40;13.20;;;;;;;4.01;65.49;101676.47;5025821;28;20120;-91
2022/04/11 02:26:24;;;;;;;15.43;13.43;;;;;;;3.85;65.53;101659.97;5031696;28;20034;-91
2022/04/11 02:28:50;;;;;;;15.00;12.77;;;;;;;3.87;65.71;101678.38;5030921;28;20030;-93
2022/04/11 02:31:15;;;;;;;16.42;13.23;;;;;;;3.92;66.45;101689.75;5032996;28;20395;-93
2022/04/11 02:33:40;;;;;;;14.75;13.25;;;;;;;3.79;66.78;101678.47;5031115;28;20079;-93
2022/04/11 02:36:05;;;;;;;14.35;12.68;;;;;;;3.70;66.46;101665.38;5033665;28;20044;-93
2022/04/11 02:38:31;;;;;;;17.27;13.45;;;;;;;3.66;66.98;101675.06;5035227;28;20028;-93
2022/04/11 02:40:56;;;;;;;19.38;13.60;;;;;;;3.61;67.57;101679.50;5033227;28;20091;-92
2022/04/11 02:43:22;;;;;;;18.65;13.48;;;;;;;3.61;67.54;101682.13;5028311;28;20025;-92
2022/04/11 02:45:47;;;;;;;17.17;14.18;;;;;;;3.55;68.10;101676.91;5028620;28;20593;-92
2022/04/11 02:48:12;;;;;;;15.80;14.02;;;;;;;3.54;68.28;101684.84;5033214;28;20352;-92
2022/04/11 02:50:38;;;;;;;18.50;14.23;;;;;;;3.49;68.81;101679.63;5028418;28;20028;-93
2022/04/11 02:53:03;;;;;;;15.57;13.95;;;;;;;3.38;69.10;101681.44;5020894;28;20554;-93
2022/04/11 02:55:28;;;;;;;17.02;14.43;;;;;;;3.37;69.29;101691.09;5029670;28;20037;-92
2022/04/11 02:57:53;;;;;;;17.25;14.48;;;;;;;3.32;70.01;101687.63;5033286;28;20032;-92
2022/04/11 03:00:19;;;;;;;17.45;14.35;;;;;;;3.21;70.49;101676.31;5033840;28;20032;-92
2022/04/11 03:02:44;;;;;;;18.48;15.07;;;;;;;3.16;70.12;101667.59;5030163;28;20037;-93
2022/04/11 03:05:09;;;;;;;15.98;14.35;;;;;;;3.16;69.86;101684.25;5029156;28;20089;-92
2022/04/11 03:07:35;;;;;;;19.83;14.40;;;;;;;3.11;70.20;101678.16;5024798;28;20021;-93
2022/04/11 03:10:00;;;;;;;18.92;14.80;;;;;;;2.86;70.59;101645.00;5025020;28;20021;-93
2022/04/11 03:12:26;;;;;;;18.00;15.43;;;;;;;2.99;70.83;101671.19;5033637;28;20029;-93
2022/04/11 03:14:51;;;;;;;20.45;15.43;;;;;;;2.94;71.07;101677.38;5035889;28;20109;-93
2022/04/11 03:17:17;;;;;;;16.77;14.65;;;;;;;2.88;71.80;101678.28;5034203;28;20045;-93
2022/04/11 03:19:44;;;;;;;17.92;14.68;;;;;;;2.86;71.89;101676.56;5036490;28;20034;-93
2022/04/11 03:22:10;;;;;;;17.13;15.32;;;;;;;2.73;71.74;101654.72;5034521;28;20474;-93
2022/04/11 03:24:36;;;;;;;18.65;15.30;;;;;;;2.72;71.57;101666.13;5031851;28;20081;-93
2022/04/11 03:27:01;;;;;;;18.42;14.73;;;;;;;2.64;72.07;101655.66;5042653;28;20076;-94
2022/04/11 03:29:27;;;;;;;17.38;15.57;;;;;;;2.64;72.10;101662.66;5037581;28;20033;-93
2022/04/11 03:31:52;;;;;;;17.45;14.32;;;;;;;2.67;72.83;101684.53;5032625;28;20550;-93
2022/04/11 03:34:17;;;;;;;19.27;15.07;;;;;;;2.57;72.41;101667.06;5033521;28;20029;-93
2022/04/11 03:36:42;;;;;;;19.30;15.35;;;;;;;2.54;72.17;101658.31;5034623;28;20025;-92
2022/04/11 03:39:08;;;;;;;17.80;15.27;;;;;;;2.45;72.19;101651.34;5034119;28;20093;-92
2022/04/11 03:41:35;;;;;;;17.40;14.98;;;;;;;2.46;72.30;101658.34;5033204;28;20018;-92
2022/04/11 03:44:01;;;;;;;17.00;15.00;;;;;;;2.45;72.76;101656.59;5029987;28;20075;-91
2022/04/11 03:46:27;;;;;;;18.95;14.93;;;;;;;2.50;73.09;101674.09;5029277;28;20120;-92
2022/04/11 03:48:53;;;;;;;20.95;15.80;;;;;;;2.29;73.06;101632.16;5027570;28;20026;-94
2022/04/11 03:51:20;;;;;;;18.85;15.23;;;;;;;2.41;72.94;101665.38;5032669;28;20038;-92
2022/04/11 03:53:45;;;;;;;17.33;15.50;;;;;;;2.42;72.99;101673.25;5017128;28;20407;-92
2022/04/11 03:56:13;;;;;;;20.38;15.77;;;;;;;2.33;73.13;101668.03;5022316;28;20034;-92
2022/04/11 03:58:39;;;;;;;21.33;15.40;;;;;;;2.20;74.15;101650.56;5036274;28;20044;-92
2022/04/11 04:01:05;;;;;;;19.83;14.90;;;;;;;2.17;74.50;101647.94;5038780;28;20022;-91
2022/04/11 04:03:30;;;;;;;20.20;15.40;;;;;;;2.22;74.19;101656.72;5034684;28;20041;-92
2022/04/11 04:05:55;;;;;;;20.55;15.38;;;;;;;2.15;73.97;101647.97;5034372;28;20030;-92
2022/04/11 04:08:21;;;;;;;19.73;14.77;;;;;;;2.11;74.01;101653.22;5037977;28;20694;-92
2022/04/11 04:10:47;;;;;;;23.52;15.48;;;;;;;2.10;74.22;101660.25;5038076;28;20044;-92
2022/04/11 04:13:12;;;;;;;18.95;15.32;;;;;;;1.95;74.24;101634.88;5035120;28;20055;-92
2022/04/11 04:15:38;;;;;;;18.42;15.27;;;;;;;1.89;74.43;101626.19;5031328;28;20032;-91
2022/04/11 04:18:03;;;;;;;18.77;15.38;;;;;;;2.02;74.89;101653.28;5037722;28;20033;-93
2022/04/11 04:20:28;;;;;;;18.80;15.20;;;;;;;1.99;74.70;101644.50;5029641;28;20124;-92
2022/04/11 04:22:54;;;;;;;17.80;14.35;;;;;;;1.98;74.87;101644.53;5023828;28;20073;-92
2022/04/11 04:25:20;;;;;;;17.60;15.07;;;;;;;1.99;75.18;101646.25;5037603;28;20029;-92
2022/04/11 04:27:45;;;;;;;18.00;14.60;;;;;;;1.89;74.89;101632.28;5025332;28;20053;-92
2022/04/11 04:30:10;;;;;;;18.63;14.73;;;;;;;1.78;74.83;101620.94;5028935;28;20026;-93
2022/04/11 04:32:36;;;;;;;18.73;14.88;;;;;;;1.92;74.55;101639.25;5025500;28;20028;-93
2022/04/11 04:35:02;;;;;;;17.55;13.77;;;;;;;1.98;74.96;101663.78;5027340;28;20045;-92
2022/04/11 04:37:27;;;;;;;16.98;14.65;;;;;;;1.79;75.00;101624.44;5026157;28;20248;-92
2022/04/11 04:39:55;;;;;;;15.95;13.00;;;;;;;1.72;74.84;101611.34;5027900;28;20069;-92
2022/04/11 04:42:21;;;;;;;18.55;14.15;;;;;;;1.94;74.88;101648.91;5026899;28;20025;-93
2022/04/11 04:44:47;;;;;;;19.05;15.05;;;;;;;1.74;75.23;101624.44;5030270;28;20053;-93
2022/04/11 04:47:15;;;;;;;18.15;14.10;;;;;;;1.86;75.25;101645.41;5028006;28;20320;-92
2022/04/11 04:49:41;;;;;;;15.98;13.52;;;;;;;1.72;74.77;101621.84;5028111;28;20017;-93
2022/04/11 04:52:12;;;;;;;20.67;14.52;;;;;;;1.81;75.17;101630.56;5028414;28;20037;-93
2022/04/11 04:54:37;;;;;;;18.58;14.68;;;;;;;1.89;75.41;101645.41;5026020;28;20060;-93
2022/04/11 04:57:03;;;;;;;24.23;14.82;;;;;;;1.83;75.96;101645.41;5029618;28;20029;-93
2022/04/11 04:59:29;;;;;;;18.52;14.48;;;;;;;1.80;75.24;101634.03;5025260;28;20033;-91
2022/04/11 05:01:55;;;;;;;17.15;14.27;;;;;;;1.82;74.70;101637.56;5026718;28;20056;-93
2022/04/11 05:04:20;;;;;;;17.73;14.25;;;;;;;1.81;74.71;101636.69;5027912;28;20034;-93
2022/04/11 05:06:46;;;;;;;18.35;13.88;;;;;;;1.85;74.48;101633.19;5031660;28;20021;-93
2022/04/11 05:09:11;;;;;;;17.83;14.00;;;;;;;1.98;74.24;101652.41;5023642;28;20117;-92
2022/04/11 05:11:37;;;;;;;17.88;14.07;;;;;;;1.83;74.15;101624.41;5035629;28;20037;-93
2022/04/11 05:14:02;;;;;;;20.48;14.90;;;;;;;1.92;74.14;101634.03;5022092;28;20034;-94
2022/04/11 05:16:27;;;;;;;20.02;13.73;;;;;;;2.02;74.02;101637.50;5042411;28;20037;-93
2022/04/11 05:18:53;;;;;;;18.90;13.68;;;;;;;2.06;74.75;101639.25;5040077;28;20030;-94
2022/04/11 05:21:18;;;;;;;19.98;13.70;;;;;;;2.07;74.27;101643.63;5031857;28;20064;-93
2022/04/11 05:23:46;;;;;;;18.83;13.40;;;;;;;1.94;74.00;101613.91;5037395;28;20533;-92
2022/04/11 05:26:11;;;;;;;16.77;13.55;;;;;;;2.16;74.03;101641.81;5030880;28;20041;-92
2022/04/11 05:28:37;;;;;;;15.18;13.40;;;;;;;2.20;73.88;101650.56;5024534;28;20147;-91
2022/04/11 05:31:02;;;;;;;15.65;11.98;;;;;;;2.02;73.54;101603.38;5036719;28;20026;-92
2022/04/11 05:33:28;;;;;;;18.77;13.48;;;;;;;2.02;73.18;101599.00;5028493;28;20040;-92
2022/04/11 05:35:53;;;;;;;16.75;12.43;;;;;;;1.94;72.96;101574.53;5029175;28;20293;-92
2022/04/11 05:38:19;;;;;;;13.88;12.40;;;;;;;2.26;72.07;101621.66;5031966;28;20032;-92
2022/04/11 05:40:47;;;;;;;15.82;12.38;;;;;;;2.28;72.25;101622.53;5035046;28;20497;-94
2022/04/11 05:43:13;;;;;;;17.38;12.88;;;;;;;2.47;71.67;101645.22;5029974;28;20021;-91
2022/04/11 05:45:39;;;;;;;14.95;12.15;;;;;;;2.36;71.99;101614.63;5027897;28;20037;-89
2022/04/11 05:48:08;;;;;;;14.65;12.40;;;;;;;2.58;71.87;101639.88;5029385;28;20041;-93
2022/04/11 05:50:33;;;;;;;13.70;11.73;;;;;;;2.43;71.29;101600.56;5034261;28;20075;-92
2022/04/11 05:53:00;;;;;;;16.80;11.25;;;;;;;2.71;71.20;101641.56;5031114;28;20037;-91
2022/04/11 05:55:25;;;;;;;13.70;12.05;;;;;;;2.78;70.52;101623.16;5036860;28;20029;-93
2022/04/11 05:57:51;;;;;;;12.77;10.90;;;;;;;2.76;70.62;101599.50;5032665;28;20048;-93
2022/04/11 06:00:16;;;;;;;15.15;11.55;;;;;;;3.15;69.56;101629.03;5035619;28;20009;-92
2022/04/11 06:02:42;;;;;;;12.35;10.32;;;;;;;3.25;69.50;101604.38;5034497;28;20080;-92
2022/04/11 06:05:11;;;;;;;13.15;10.20;;;;;;;3.54;68.52;101606.75;5032479;28;20013;-94
2022/04/11 06:07:37;;;;;;;12.93;10.68;;;;;;;3.81;67.02;101608.22;5032309;28;20037;-91
2022/04/11 06:10:03;;;;;;;14.48;10.40;;;;;;;4.05;66.77;101607.06;5029009;28;20092;-90
2022/04/11 06:12:29;;;;;;;11.68;10.45;;;;;;;4.34;65.76;101622.53;5009473;28;20096;-92
2022/04/11 06:14:54;;;;;;;12.48;10.07;;;;;;;4.57;65.16;101626.63;5028750;28;20033;-91
2022/04/11 06:17:26;;;;;;;12.07;10.00;;;;;;;4.67;65.60;101618.56;5033112;28;20030;-93
2022/04/11 06:19:53;;;;;;;11.93;9.65;;;;;;;4.80;64.62;101599.91;5018316;28;20100;-92
2022/04/11 06:22:19;;;;;;;12.73;10.00;;;;;;;5.09;64.17;101617.94;5023722;28;20025;-92
2022/04/11 06:24:45;;;;;;;11.48;9.55;;;;;;;5.32;63.36;101628.16;5033886;28;20036;-92
2022/04/11 06:27:10;;;;;;;11.60;9.75;;;;;;;5.56;63.01;101647.97;5033058;28;20406;-90
2022/04/11 06:29:36;;;;;;;10.35;9.20;;;;;;;5.66;61.90;101633.72;5035871;28;20091;-92
2022/04/11 06:32:02;;;;;;;10.20;9.10;;;;;;;5.76;62.08;101630.00;5035142;28;20108;-91
2022/04/11 06:34:28;;;;;;;10.88;9.25;;;;;;;5.87;61.65;101624.53;5031910;28;20024;-92
2022/04/11 06:36:53;;;;;;;12.40;9.57;;;;;;;5.99;61.24;101626.97;5035234;28;20128;-90
2022/04/11 06:39:18;;;;;;;11.48;9.38;;;;;;;6.06;60.94;101628.59;5031125;28;20030;-91
2022/04/11 06:41:44;;;;;;;12.18;9.55;;;;;;;6.22;60.82;101630.00;5023600;28;20022;-91
2022/04/11 06:44:10;;;;;;;9.63;8.38;;;;;;;6.34;60.19;101615.66;5035733;28;20029;-93
2022/04/11 06:46:35;;;;;;;9.88;8.75;;;;;;;6.55;59.64;101618.75;5032768;28;20028;-91
2022/04/11 06:49:01;;;;;;;8.68;7.85;;;;;;;6.49;59.29;101585.41;5019515;28;20026;-95
2022/04/11 06:51:26;;;;;;;11.00;8.82;;;;;;;6.75;59.00;101605.97;5034919;28;20059;-93
2022/04/11 06:53:51;;;;;;;11.40;8.20;;;;;;;6.91;57.92;101602.06;5032052;28;20376;-93
2022/04/11 06:56:17;;;;;;;10.63;9.05;;;;;;;7.05;58.19;101603.50;5022864;28;20034;-92
2022/04/11 06:58:42;;;;;;;10.52;8.30;;;;;;;7.28;57.72;101617.06;5033654;28;20002;-93
2022/04/11 07:01:08;;;;;;;10.25;7.78;;;;;;;7.64;56.53;101630.25;5011812;28;20033;-94
2022/04/11 07:03:33;;;;;;;10.07;7.82;;;;;;;7.81;56.45;101614.78;5023398;28;20053;-94
2022/04/11 07:05:58;;;;;;;10.57;7.97;;;;;;;8.08;55.61;101638.81;5020689;28;20912;-93
2022/04/11 07:08:24;;;;;;;8.60;7.68;;;;;;;8.10;54.89;101608.66;5031308;28;20064;-91
2022/04/11 07:10:49;;;;;;;12.55;8.18;;;;;;;8.41;55.20;101600.75;5036118;28;20270;-93
2022/04/11 07:13:14;;;;;;;10.75;8.05;;;;;;;8.94;53.98;101643.31;5028536;28;20025;-93
2022/04/11 07:15:40;;;;;;;9.95;7.75;;;;;;;9.13;53.30;101625.03;5026738;28;20040;-93
2022/04/11 07:18:05;;;;;;;10.13;7.25;;;;;;;9.36;51.75;101628.72;5024329;28;20032;-93
2022/04/11 07:20:31;;;;;;;12.15;7.25;;;;;;;9.55;51.61;101637.81;5026147;28;20289;-93
2022/04/11 07:22:56;;;;;;;9.82;7.03;;;;;;;9.81;52.06;101634.25;5027302;28;20495;-93
2022/04/11 07:25:24;;;;;;;11.20;7.00;;;;;;;10.12;50.09;101622.53;5025734;28;20116;-89
2022/04/11 07:27:50;;;;;;;11.85;6.85;;;;;;;10.27;49.81;101610.47;5030002;28;20040;-92
2022/04/11 07:30:16;;;;;;;10.80;6.38;;;;;;;10.54;49.15;101606.78;5025387;28;20032;-92
2022/04/11 07:32:41;;;;;;;8.00;6.32;;;;;;;10.80;48.53;101611.09;5024998;28;20509;-95
2022/04/11 07:35:07;;;;;;;7.03;6.15;;;;;;;11.26;47.34;101622.53;5028249;28;20057;-93
2022/04/11 07:37:33;;;;;;;12.35;6.50;;;;;;;11.57;47.25;101623.91;5025777;28;20036;-88
2022/04/11 07:40:02;;;;;;;9.40;6.47;;;;;;;11.93;46.30;101613.50;5025268;28;20494;-87
2022/04/11 07:42:28;;;;;;;11.68;6.20;;;;;;;12.27;45.84;101610.16;5029330;28;20086;-89
2022/04/11 07:44:53;;;;;;;8.25;5.85;;;;;;;12.31;43.37;101595.75;5025974;28;20244;-89
2022/04/11 07:47:18;;;;;;;8.13;5.60;;;;;;;12.46;44.33;101603.06;5022183;28;20041;-87
2022/04/11 07:49:44;;;;;;;8.98;5.82;;;;;;;12.89;44.57;101600.16;5026588;28;20044;-87
2022/04/11 07:52:10;;;;;;;8.35;5.35;;;;;;;13.34;42.42;101601.53;5030272;28;20093;-87
2022/04/11 07:54:35;;;;;;;7.00;4.78;;;;;;;13.65;40.92;101595.47;5025353;28;20319;-87
2022/04/11 07:57:00;;;;;;;9.82;5.68;;;;;;;13.81;40.20;101583.03;5025589;28;20068;-87
2022/04/11 07:59:25;;;;;;;9.98;5.20;;;;;;;13.94;39.38;101585.91;5021090;28;20103;-87
2022/04/11 08:01:52;;;;;;;13.32;5.25;;;;;;;14.07;39.66;101588.81;5020251;28;20132;-87
2022/04/11 08:04:17;;;;;;;7.63;4.93;;;;;;;14.38;38.93;101578.16;5029758;28;20080;-87
2022/04/11 08:06:42;;;;;;;9.63;4.55;;;;;;;14.81;38.79;101582.97;5025514;28;20123;-86
2022/04/11 08:09:08;;;;;;;10.50;4.80;;;;;;;15.29;37.30;101589.97;5023482;28;20026;-85
2022/04/11 08:11:33;;;;;;;8.15;4.53;;;;;;;15.68;37.95;101577.88;5023017;28;20068;-86
2022/04/11 08:13:58;;;;;;;9.45;4.90;;;;;;;15.99;35.92;101574.16;5029150;28;20041;-87
2022/04/11 08:16:24;;;;;;;7.00;4.30;;;;;;;16.21;34.81;101587.09;5030835;28;20093;-87
2022/04/11 08:18:49;;;;;;;5.88;4.35;;;;;;;16.47;34.86;101558.63;5024907;28;20026;-87
2022/04/11 08:21:14;;;;;;;8.43;4.30;;;;;;;16.77;34.33;101563.00;5021369;28;20034;-86
2022/04/11 08:23:40;;;;;;;4.97;3.85;;;;;;;16.72;33.41;101565.06;5027112;28;20109;-86
2022/04/11 08:26:05;;;;;;;6.40;4.10;;;;;;;16.77;33.78;101553.09;5028625;28;20566;-87
2022/04/11 08:28:30;;;;;;;10.43;4.18;;;;;;;16.86;32.47;101563.25;5025022;28;20037;-86
2022/04/11 08:30:55;;;;;;;4.85;3.80;;;;;;;17.15;33.27;101558.63;5021118;28;20038;-86
2022/04/11 08:33:21;;;;;;;4.43;3.50;;;;;;;17.52;32.22;101556.13;5019536;28;20061;-86
2022/04/11 08:35:46;;;;;;;5.88;3.50;;;;;;;17.74;31.85;101550.13;5029380;28;20041;-86
2022/04/11 08:38:11;;;;;;;4.93;3.45;;;;;;;17.84;31.14;101556.59;5028540;28;20033;-86
2022/04/11 08:40:37;;;;;;;6.63;3.60;;;;;;;18.23;31.92;101551.22;5013249;28;20033;-86
2022/04/11 08:43:02;;;;;;;6.57;3.80;;;;;;;18.17;29.81;101547.97;5027046;28;20036;-86
2022/04/11 08:45:29;;;;;;;5.53;3.55;;;;;;;18.13;30.50;101543.75;5026749;28;20068;-86
2022/04/11 08:47:56;;;;;;;6.50;3.60;;;;;;;18.21;29.99;101545.06;5021423;28;20395;-86
2022/04/11 08:50:22;;;;;;;5.57;3.97;;;;;;;18.54;30.19;101548.00;5026051;28;20026;-85
2022/04/11 08:52:54;;;;;;;7.45;3.60;;;;;;;19.03;29.70;101548.94;5024333;28;20024;-83
2022/04/11 08:55:19;;;;;;;4.70;3.20;;;;;;;19.63;28.80;101559.59;5023671;28;20475;-85
2022/04/11 08:57:45;;;;;;;5.78;3.67;;;;;;;19.86;27.46;101549.69;5024080;28;20962;-85
2022/04/11 09:00:13;;;;;;;4.18;3.20;;;;;;;20.04;27.38;101558.19;5027105;28;20071;-85
2022/04/11 09:02:41;;;;;;;5.07;3.42;;;;;;;20.33;27.35;101555.00;5019947;28;20029;-86
2022/04/11 09:05:07;;;;;;;4.35;3.40;;;;;;;20.47;26.64;101562.84;5021209;28;20034;-84
2022/04/11 09:07:54;;;;;;;6.18;3.40;;;;;;;20.95;28.17;101551.72;5021011;28;20029;-86
2022/04/11 09:10:27;;;;;;;3.75;2.80;;;;;;;21.23;25.19;101554.78;5022259;28;20036;-86
2022/04/11 09:12:55;;;;;;;5.22;3.20;;;;;;;21.33;25.03;101543.09;5027368;28;20061;-87
2022/04/11 09:15:23;;;;;;;4.75;3.05;;;;;;;21.61;25.05;101549.72;5026581;28;20479;-86
2022/04/11 09:17:49;;;;;;;4.90;3.33;;;;;;;21.74;23.93;101549.50;5024466;28;20583;-86
2022/04/11 09:20:17;;;;;;;5.05;2.95;;;;;;;21.62;23.82;101550.56;5022605;28;20025;-87
2022/04/11 09:22:43;;;;;;;5.93;3.17;;;;;;;21.63;24.01;101544.16;5023442;28;20458;-86
2022/04/11 09:25:10;;;;;;;4.15;2.88;;;;;;;22.01;24.06;101539.94;5024512;28;20057;-86
2022/04/11 09:27:36;;;;;;;3.47;3.15;;;;;;;22.34;23.88;101533.41;5031053;28;20069;-86
2022/04/11 09:30:17;;;;;;;4.22;2.97;;;;;;;22.83;22.66;101531.66;5023506;28;20468;-86
2022/04/11 09:32:57;;;;;;;5.32;3.47;;;;;;;23.38;22.98;101522.97;5024851;28;20502;-87
2022/04/11 09:35:24;;;;;;;3.35;2.90;;;;;;;23.09;21.88;101516.56;5030271;28;20437;-86
2022/04/11 09:38:10;;;;;;;5.45;2.92;;;;;;;23.48;24.07;101518.38;5030273;28;20060;-85
2022/04/11 09:40:38;;;;;;;5.72;2.92;;;;;;;23.08;21.17;101514.00;5021006;28;20026;-86
2022/04/11 09:43:03;;;;;;;5.55;3.20;;;;;;;23.25;21.93;101510.56;5023781;28;20104;-85
2022/04/11 09:45:28;;;;;;;4.38;3.05;;;;;;;23.88;21.39;101511.88;5025216;28;20030;-87
2022/04/11 09:48:04;;;;;;;3.70;2.60;;;;;;;23.85;21.04;101503.00;5021966;28;20651;-86
2022/04/11 09:50:32;;;;;;;4.13;2.75;;;;;;;23.83;21.53;101496.03;5023513;28;20116;-86
2022/04/11 09:53:09;;;;;;;5.50;2.55;;;;;;;24.68;21.44;101494.88;5020533;28;20048;-87
2022/04/11 09:55:35;;;;;;;6.38;2.85;;;;;;;24.98;18.74;101506.41;5020312;28;20018;-86
2022/04/11 09:58:05;;;;;;;4.05;2.63;;;;;;;24.19;18.92;101494.28;5023998;28;20018;-86
2022/04/11 10:00:32;;;;;;;4.07;2.58;;;;;;;23.48;19.51;101493.94;5017430;28;20533;-86
2022/04/11 10:02:59;;;;;;;3.00;2.20;;;;;;;23.85;20.97;101497.56;5015335;28;20089;-87
2022/04/11 10:05:25;;;;;;;2.97;2.22;;;;;;;23.96;20.02;101482.94;5032589;28;20021;-86
2022/04/11 10:07:54;;;;;;;4.80;3.03;;;;;;;24.39;20.05;101470.59;5024145;28;20029;-86
2022/04/11 10:10:22;;;;;;;6.30;3.13;;;;;;;25.09;20.22;101470.78;5025320;28;20033;-86
2022/04/11 10:12:47;;;;;;;4.32;3.20;;;;;;;25.69;20.17;101462.69;5032108;28;20064;-86
2022/04/11 10:15:13;;;;;;;5.68;3.72;;;;;;;25.66;19.42;101473.91;5032064;28;20475;-86
2022/04/11 10:17:38;;;;;;;5.07;3.20;;;;;;;25.27;19.11;101477.06;5026692;28;20037;-87
2022/04/11 10:20:05;;;;;;;5.32;3.20;;;;;;;25.21;18.83;101471.41;5023428;28;20191;-87
2022/04/11 10:22:38;;;;;;;6.95;3.80;;;;;;;24.60;19.61;101468.44;5029052;28;20029;-87
2022/04/11 10:25:06;;;;;;;6.55;3.60;;;;;;;24.75;19.62;101468.75;5026067;28;20033;-86
2022/04/11 10:27:32;;;;;;;4.57;3.33;;;;;;;25.21;19.04;101465.97;5023623;28;20607;-84
2022/04/11 10:29:59;;;;;;;5.22;3.38;;;;;;;25.58;18.85;101469.28;5024420;28;20029;-86
2022/04/11 10:32:29;;;;;;;5.13;3.72;;;;;;;25.88;18.93;101461.66;5029953;28;20033;-86
2022/04/11 10:35:03;;;;;;;4.57;3.05;;;;;;;26.48;18.90;101467.00;5028777;28;20017;-86
2022/04/11 10:37:48;;;;;;;6.22;3.55;;;;;;;26.53;19.34;101456.44;5032146;28;20029;-86
2022/04/11 10:40:16;;;;;;;5.78;2.85;;;;;;;26.47;18.16;101453.53;5017225;28;20034;-86
2022/04/11 10:43:00;;;;;;;4.90;2.90;;;;;;;26.11;19.63;101461.91;5028637;28;20033;-86
2022/04/11 10:45:31;;;;;;;5.45;3.20;;;;;;;25.47;18.32;101474.16;5024701;28;20037;-86
2022/04/11 10:47:57;;;;;;;5.32;3.03;;;;;;;25.41;18.45;101458.41;5015352;28;20040;-87
2022/04/11 10:50:25;;;;;;;4.97;3.22;;;;;;;25.46;19.10;101453.38;5024742;28;20467;-87
2022/04/11 10:53:05;;;;;;;4.50;2.63;;;;;;;25.84;18.38;101460.25;5020874;28;20034;-86
2022/04/11 10:55:31;;;;;;;5.65;3.00;;;;;;;25.56;18.37;101454.09;5024309;28;20140;-87
2022/04/11 10:57:57;;;;;;;3.28;2.90;;;;;;;25.04;17.93;101440.41;5021768;28;20519;-86
2022/04/11 11:00:25;;;;;;;5.38;3.30;;;;;;;25.53;20.02;101435.34;5024639;28;20021;-88
2022/04/11 11:02:54;;;;;;;3.28;2.72;;;;;;;26.19;18.30;101434.66;5023702;28;20042;-87
2022/04/11 11:05:24;;;;;;;4.55;2.88;;;;;;;26.61;17.13;101436.47;5026933;28;20037;-88
2022/04/11 11:08:09;;;;;;;4.15;2.80;;;;;;;26.86;16.71;101434.63;5024986;28;20041;-89
2022/04/11 11:10:51;;;;;;;5.40;2.58;;;;;;;26.86;18.08;101417.41;5020047;28;20507;-87
2022/04/11 11:13:26;;;;;;;6.30;2.75;;;;;;;27.52;16.91;101424.53;5027540;28;20041;-87
2022/04/11 11:15:55;;;;;;;3.47;2.30;;;;;;;27.94;16.04;101399.59;5023205;28;20117;-87
2022/04/11 11:18:21;;;;;;;3.83;2.40;;;;;;;28.49;15.73;101414.19;5025147;28;20034;-87